Flight Track Log - Related Links

Times and Time Zones

All times are in EDT time to prevent confusion due to time zone crossing. See the UAL582 flight status page for this flight to view local times or setup timezone preferences in your user account.

Time Position Orientation Groundspeed Altitude Reporting Facility
EDT Latitude Longitude Course Direction KTS MPH feet Rate Location/Type
Wed 06:07:53 PM 43.6667 -79.6500 277° West 150 173 1,700  Level Toronto Center
Wed 06:08:53 PM 43.6333 -79.7333 241° Southwest 210 242 3,500 2,100 Climbing Toronto Center
Wed 06:09:53 PM 43.6167 -79.8000 251° West 260 299 5,900 1,750 Climbing Toronto Center
Wed 06:10:53 PM 43.6000 -79.9167 259° West 260 299 7,000 550 Climbing Toronto Center
Wed 06:11:53 PM 43.6167 -80.0000 285° West 270 311 7,000 1,067 Level Toronto Center
Wed 06:13:00 PM 43.6779 -79.6380 277° West  Level FlightAware Approximate
Wed 06:13:53 PM 43.5833 -80.1833 256° West 290 334 10,200  Level Toronto Center
Wed 06:14:53 PM 43.5000 -80.2500 210° Southwest 300 345 12,800 2,450 Climbing Toronto Center
Wed 06:15:53 PM 43.4333 -80.3167 216° Southwest 320 368 15,100 2,400 Climbing Toronto Center
Wed 06:16:53 PM 43.3500 -80.3833 210° Southwest 330 380 17,600 2,300 Climbing Toronto Center
Wed 06:17:53 PM 43.2833 -80.4833 228° Southwest 340 391 19,700 2,000 Climbing Toronto Center
Wed 06:18:53 PM 43.2167 -80.5667 222° Southwest 360 414 21,600 1,700 Climbing Toronto Center
Wed 06:19:53 PM 43.1333 -80.6667 221° Southwest 370 426 23,100 2,050 Climbing Toronto Center
Wed 06:20:53 PM 43.0833 -80.7667 236° Southwest 370 426 25,700 2,100 Climbing Toronto Center
Wed 06:21:53 PM 43.0333 -80.9167 246° West 360 414 27,300 1,600 Climbing Toronto Center
Wed 06:22:53 PM 43.0333 -81.0500 270° West 360 414 28,900 1,350 Climbing Toronto Center
Wed 06:23:53 PM 43.0333 -81.1833 270° West 370 426 30,000 950 Climbing Toronto Center
Wed 06:24:53 PM 43.0333 -81.3500 270° West 380 437 30,800 750 Climbing Toronto Center
Wed 06:25:53 PM 43.0333 -81.4833 270° West 400 460 31,500 550 Climbing Toronto Center
Wed 06:26:53 PM 43.0333 -81.6667 270° West 420 483 31,900 250 Climbing Toronto Center
Wed 06:27:53 PM 43.0333 -81.8167 270° West 430 495 32,000 50 Climbing Toronto Center
Wed 06:28:53 PM 43.0167 -81.9833 262° West 430 495 32,000  Level Toronto Center
Wed 06:29:53 PM 43.0167 -82.1333 270° West 420 483 32,000  Level Toronto Center
Wed 06:30:53 PM 43.0167 -82.3000 270° West 420 483 32,000  Level Toronto Center
Wed 06:31:53 PM 43.0167 -82.4667 270° West 420 483 32,000  Level Toronto Center
Wed 06:32:53 PM 43.0000 -82.6167 261° West 420 483 32,000  Level Toronto Center
Wed 06:34:15 PM 43.0050 -82.8222 272° West 420 483 32,000  Level Cleveland Center
Wed 06:35:17 PM 42.9989 -82.9831 267° West 425 489 32,000  Level Cleveland Center
Wed 06:36:19 PM 42.9919 -83.1728 267° West 422 486 32,000  Level Cleveland Center
Wed 06:37:22 PM 42.9853 -83.3311 267° West 422 486 32,000  Level Cleveland Center
Wed 06:38:24 PM 42.9778 -83.4892 266° West 420 483 32,000  Level Cleveland Center
Wed 06:39:26 PM 42.9717 -83.6522 267° West 428 493 32,000  Level Cleveland Center
Wed 06:40:28 PM 42.9622 -83.8117 265° West 428 493 32,000  Level Cleveland Center
Wed 06:41:30 PM 42.9422 -84.0028 262° West 428 493 32,000 -242 Level Cleveland Center
Wed 06:42:32 PM 42.9269 -84.1614 263° West 428 493 31,500 -720 Descending Cleveland Center
Wed 06:43:35 PM 42.9100 -84.3331 262° West 428 493 30,500 -1,056 Descending Cleveland Center
Wed 06:44:37 PM 42.8925 -84.4972 262° West 436 502 29,300 -1,210 Descending Cleveland Center
Wed 06:45:39 PM 42.8761 -84.6619 262° West 437 503 28,000 -629 Descending Cleveland Center
Wed 06:46:41 PM 42.8583 -84.8275 262° West 441 507 28,000  Level Cleveland Center
Wed 06:47:43 PM 42.8414 -84.9917 262° West 440 506 28,000  Level Cleveland Center
Wed 06:48:45 PM 42.8203 -85.1881 262° West 438 504 28,000  Level Cleveland Center
Wed 06:49:47 PM 42.8028 -85.3506 262° West 438 504 28,000  Level Cleveland Center
Wed 06:50:50 PM 42.7844 -85.5114 261° West 432 497 28,000  Level Cleveland Center
Wed 06:51:52 PM 42.7544 -85.6706 256° West 431 496 28,000 -484 Level Cleveland Center
Wed 06:52:54 PM 42.7264 -85.8278 256° West 429 494 27,000 -1,597 Descending Cleveland Center
Wed 06:53:56 PM 42.6989 -85.9819 256° West 421 484 24,700 -2,226 Descending Cleveland Center
Wed 06:54:58 PM 42.6722 -86.1289 256° West 404 465 22,400 -2,177 Descending Cleveland Center
Wed 06:56:00 PM 42.6453 -86.2731 256° West 395 455 20,200 -1,255 Descending Cleveland Center
Wed 06:57:31 PM 42.6028 -86.4950 255° West 378 435 19,200 -1,294 Descending Chicago Center
Wed 06:58:33 PM 42.5761 -86.6342 255° West 381 438 16,900 -2,274 Descending Chicago Center
Wed 06:59:35 PM 42.5503 -86.7675 255° West 370 426 14,500 -2,352 Descending Chicago Center
Wed 07:00:38 PM 42.5094 -86.9142 249° West 353 406 12,000 -1,680 Descending Chicago Center
Wed 07:01:40 PM 42.4797 -87.0222 250° West 313 360 11,000 -968 Descending Chicago Center
Wed 07:02:42 PM 42.4528 -87.1167 249° West 273 314 10,000 -774 Descending Chicago Center
Wed 07:03:44 PM 42.4269 -87.2103 250° West 269 310 9,400 -484 Descending Chicago Center
Wed 07:04:46 PM 42.4011 -87.3044 250° West 266 306 9,000 -677 Descending Chicago Center
Wed 07:05:48 PM 42.3628 -87.3836 237° Southwest 275 316 8,000 -1,344 Descending Chicago Center
Wed 07:06:51 PM 42.2753 -87.4294 201° Southwest 280 322 6,200 -960 Descending Chicago Center
Wed 07:07:53 PM 42.2042 -87.4714 204° Southwest 280 322 6,000 -726 Descending Chicago Center
Wed 07:08:55 PM 42.1300 -87.5178 205° Southwest 275 316 4,700 -919 Descending Chicago Center
Wed 07:09:57 PM 42.0656 -87.5592 205° Southwest 257 296 4,100 -387 Descending Chicago Center
Wed 07:10:59 PM 42.0383 -87.6347 244° Southwest 215 247 3,900 -288 Descending Chicago Center
Wed 07:12:02 PM 42.0189 -87.7117 251° West 219 252 3,500 -672 Descending Chicago Center
Wed 07:13:04 PM 42.0028 -87.7800 252° West 183 211 2,500 -968 Descending Chicago Center
Wed 07:14:06 PM 42.0028 -87.8417 270° West 168 193 1,500 -823 Descending Chicago Center
Wed 07:15:08 PM 42.0031 -87.8919 270° West 142 163 800 -677 Descending Chicago Center
Wed 07:17:00 PM 41.9793 -87.9074 217° Southwest  Level Estimated

Login

Don't have an account? Register now (free) for customized features, flight alerts, and more!